sensor_id;sensor_type;location;lat;lon;timestamp;pressure;altitude;pressure_sealevel;temperature;humidity
75640;BME280;64233;51.486;6.332;2023-12-29T00:00:35;122056.28;;;9.74;100.00
75640;BME280;64233;51.486;6.332;2023-12-29T00:03:01;122372.16;;;9.57;100.00
75640;BME280;64233;51.486;6.332;2023-12-29T00:05:26;122691.16;;;9.77;100.00
75640;BME280;64233;51.486;6.332;2023-12-29T00:07:52;122006.84;;;9.63;100.00
75640;BME280;64233;51.486;6.332;2023-12-29T00:10:17;122667.09;;;9.59;100.00
75640;BME280;64233;51.486;6.332;2023-12-29T00:12:43;123160.78;;;9.62;100.00
75640;BME280;64233;51.486;6.332;2023-12-29T00:15:11;123037.75;;;9.67;100.00
75640;BME280;64233;51.486;6.332;2023-12-29T00:17:36;123069.97;;;9.57;100.00
75640;BME280;64233;51.486;6.332;2023-12-29T00:20:05;123748.09;;;9.53;100.00
75640;BME280;64233;51.486;6.332;2023-12-29T00:22:32;123496.66;;;9.62;100.00
75640;BME280;64233;51.486;6.332;2023-12-29T00:24:58;123882.09;;;9.58;100.00
75640;BME280;64233;51.486;6.332;2023-12-29T00:27:23;124315.69;;;9.60;100.00
75640;BME280;64233;51.486;6.332;2023-12-29T00:29:48;124139.09;;;9.62;100.00
75640;BME280;64233;51.486;6.332;2023-12-29T00:32:14;124192.66;;;9.65;100.00
75640;BME280;64233;51.486;6.332;2023-12-29T00:34:39;124032.31;;;9.63;100.00
75640;BME280;64233;51.486;6.332;2023-12-29T00:37:04;123813.72;;;9.57;100.00
75640;BME280;64233;51.486;6.332;2023-12-29T00:39:30;124010.44;;;9.61;100.00
75640;BME280;64233;51.486;6.332;2023-12-29T00:42:03;124077.78;;;9.70;100.00
75640;BME280;64233;51.486;6.332;2023-12-29T00:44:29;122859.59;;;9.65;100.00
75640;BME280;64233;51.486;6.332;2023-12-29T00:46:54;123328.28;;;9.60;100.00
75640;BME280;64233;51.486;6.332;2023-12-29T00:49:19;123401.16;;;9.52;100.00
75640;BME280;64233;51.486;6.332;2023-12-29T00:51:44;123703.50;;;9.63;100.00
75640;BME280;64233;51.486;6.332;2023-12-29T00:54:10;123698.88;;;9.54;100.00
75640;BME280;64233;51.486;6.332;2023-12-29T00:56:35;123975.06;;;9.60;100.00
75640;BME280;64233;51.486;6.332;2023-12-29T00:59:00;124039.75;;;9.60;100.00
75640;BME280;64233;51.486;6.332;2023-12-29T01:01:25;123991.66;;;9.49;100.00
75640;BME280;64233;51.486;6.332;2023-12-29T01:03:51;124558.94;;;9.51;100.00
75640;BME280;64233;51.486;6.332;2023-12-29T01:06:20;125080.53;;;9.53;100.00
75640;BME280;64233;51.486;6.332;2023-12-29T01:08:45;125366.16;;;9.45;100.00
75640;BME280;64233;51.486;6.332;2023-12-29T01:11:10;124754.75;;;9.63;100.00
75640;BME280;64233;51.486;6.332;2023-12-29T01:13:35;124920.47;;;9.48;100.00
75640;BME280;64233;51.486;6.332;2023-12-29T01:16:01;125019.16;;;9.48;100.00
75640;BME280;64233;51.486;6.332;2023-12-29T01:18:26;125393.19;;;9.49;100.00
75640;BME280;64233;51.486;6.332;2023-12-29T01:20:51;125202.25;;;9.59;100.00
75640;BME280;64233;51.486;6.332;2023-12-29T01:23:17;125519.00;;;9.38;100.00
75640;BME280;64233;51.486;6.332;2023-12-29T01:25:43;126221.53;;;9.37;100.00
75640;BME280;64233;51.486;6.332;2023-12-29T01:28:08;127108.97;;;9.32;100.00
75640;BME280;64233;51.486;6.332;2023-12-29T01:30:33;128427.03;;;9.24;100.00
75640;BME280;64233;51.486;6.332;2023-12-29T01:32:59;129219.13;;;9.18;100.00
75640;BME280;64233;51.486;6.332;2023-12-29T01:35:24;130902.84;;;9.00;100.00
75640;BME280;64233;51.486;6.332;2023-12-29T01:37:49;133054.75;;;9.10;100.00
75640;BME280;64233;51.486;6.332;2023-12-29T01:40:15;135308.34;;;8.81;100.00
75640;BME280;64233;51.486;6.332;2023-12-29T01:42:41;136692.25;;;8.89;100.00
75640;BME280;64233;51.486;6.332;2023-12-29T01:45:19;139386.66;;;8.60;100.00
75640;BME280;64233;51.486;6.332;2023-12-29T01:47:46;143903.91;;;8.52;100.00
75640;BME280;64233;51.486;6.332;2023-12-29T01:50:12;146016.41;;;8.47;100.00
75640;BME280;64233;51.486;6.332;2023-12-29T01:52:37;148308.28;;;8.46;100.00
75640;BME280;64233;51.486;6.332;2023-12-29T01:55:03;149941.69;;;8.46;100.00
75640;BME280;64233;51.486;6.332;2023-12-29T01:57:29;150770.09;;;8.35;100.00
75640;BME280;64233;51.486;6.332;2023-12-29T01:59:54;152645.28;;;8.42;100.00
75640;BME280;64233;51.486;6.332;2023-12-29T02:02:19;153758.31;;;8.45;100.00
75640;BME280;64233;51.486;6.332;2023-12-29T02:04:45;152985.91;;;8.53;100.00
75640;BME280;64233;51.486;6.332;2023-12-29T02:07:10;153719.63;;;8.41;100.00
75640;BME280;64233;51.486;6.332;2023-12-29T02:09:36;153767.22;;;8.55;100.00
75640;BME280;64233;51.486;6.332;2023-12-29T02:12:02;153729.63;;;8.53;100.00
75640;BME280;64233;51.486;6.332;2023-12-29T02:14:27;154030.69;;;8.52;100.00
75640;BME280;64233;51.486;6.332;2023-12-29T02:17:27;154958.81;;;8.54;100.00
75640;BME280;64233;51.486;6.332;2023-12-29T02:19:55;156571.81;;;8.36;100.00
75640;BME280;64233;51.486;6.332;2023-12-29T02:22:21;156571.81;;;8.36;100.00
75640;BME280;64233;51.486;6.332;2023-12-29T02:24:48;156571.81;;;8.36;100.00
75640;BME280;64233;51.486;6.332;2023-12-29T02:30:20;156538.47;;;8.23;100.00
75640;BME280;64233;51.486;6.332;2023-12-29T02:32:49;156532.06;;;8.20;100.00
75640;BME280;64233;51.486;6.332;2023-12-29T02:35:23;156533.38;;;8.21;100.00
75640;BME280;64233;51.486;6.332;2023-12-29T02:37:49;156547.47;;;8.26;100.00
75640;BME280;64233;51.486;6.332;2023-12-29T02:40:15;156602.69;;;8.49;100.00
75640;BME280;64233;51.486;6.332;2023-12-29T02:42:47;156596.25;;;8.46;100.00
75640;BME280;64233;51.486;6.332;2023-12-29T02:45:14;156609.09;;;8.51;100.00
75640;BME280;64233;51.486;6.332;2023-12-29T02:47:40;156634.75;;;8.61;100.00
75640;BME280;64233;51.486;6.332;2023-12-29T02:50:06;156647.59;;;8.67;100.00
75640;BME280;64233;51.486;6.332;2023-12-29T02:52:32;156305.69;;;8.68;100.00
75640;BME280;64233;51.486;6.332;2023-12-29T02:54:57;154725.06;;;8.96;100.00
75640;BME280;64233;51.486;6.332;2023-12-29T02:57:22;152970.13;;;9.04;100.00
75640;BME280;64233;51.486;6.332;2023-12-29T02:59:47;150300.38;;;9.02;100.00
75640;BME280;64233;51.486;6.332;2023-12-29T03:02:13;149529.59;;;9.02;100.00
75640;BME280;64233;51.486;6.332;2023-12-29T03:04:38;148491.81;;;8.92;100.00
75640;BME280;64233;51.486;6.332;2023-12-29T03:07:03;147451.63;;;9.03;100.00
75640;BME280;64233;51.486;6.332;2023-12-29T03:09:29;146467.41;;;9.11;100.00
75640;BME280;64233;51.486;6.332;2023-12-29T03:11:54;145765.88;;;9.08;100.00
75640;BME280;64233;51.486;6.332;2023-12-29T03:14:19;144854.81;;;9.08;100.00
75640;BME280;64233;51.486;6.332;2023-12-29T03:16:45;144007.81;;;9.12;100.00
75640;BME280;64233;51.486;6.332;2023-12-29T03:19:10;143109.78;;;9.11;100.00
75640;BME280;64233;51.486;6.332;2023-12-29T03:21:35;142031.50;;;9.04;100.00
75640;BME280;64233;51.486;6.332;2023-12-29T03:24:00;142301.72;;;9.23;100.00
75640;BME280;64233;51.486;6.332;2023-12-29T03:26:26;141615.38;;;9.07;100.00
75640;BME280;64233;51.486;6.332;2023-12-29T03:28:51;140705.81;;;9.16;100.00
75640;BME280;64233;51.486;6.332;2023-12-29T03:31:16;140402.56;;;9.17;100.00
75640;BME280;64233;51.486;6.332;2023-12-29T03:33:41;141017.50;;;9.21;100.00
75640;BME280;64233;51.486;6.332;2023-12-29T03:36:08;139866.72;;;9.18;100.00
75640;BME280;64233;51.486;6.332;2023-12-29T03:38:34;139223.97;;;9.10;100.00
75640;BME280;64233;51.486;6.332;2023-12-29T03:40:59;139615.72;;;9.17;100.00
75640;BME280;64233;51.486;6.332;2023-12-29T03:43:24;139109.88;;;9.15;100.00
75640;BME280;64233;51.486;6.332;2023-12-29T03:45:49;139098.78;;;8.96;100.00
75640;BME280;64233;51.486;6.332;2023-12-29T03:48:15;138464.50;;;9.10;100.00
75640;BME280;64233;51.486;6.332;2023-12-29T03:50:40;138191.53;;;8.98;100.00
75640;BME280;64233;51.486;6.332;2023-12-29T03:53:05;137723.44;;;9.02;100.00
75640;BME280;64233;51.486;6.332;2023-12-29T03:55:31;137990.66;;;9.18;100.00
75640;BME280;64233;51.486;6.332;2023-12-29T03:57:56;136854.41;;;9.15;100.00
75640;BME280;64233;51.486;6.332;2023-12-29T04:00:21;136805.28;;;9.07;100.00
75640;BME280;64233;51.486;6.332;2023-12-29T04:02:47;136779.22;;;8.82;100.00
75640;BME280;64233;51.486;6.332;2023-12-29T04:05:12;137093.78;;;9.00;100.00
75640;BME280;64233;51.486;6.332;2023-12-29T04:07:40;137175.09;;;8.96;100.00
75640;BME280;64233;51.486;6.332;2023-12-29T04:10:06;137062.00;;;9.01;100.00
75640;BME280;64233;51.486;6.332;2023-12-29T04:12:32;137443.56;;;9.03;100.00
75640;BME280;64233;51.486;6.332;2023-12-29T04:15:01;138238.34;;;8.95;100.00
75640;BME280;64233;51.486;6.332;2023-12-29T04:17:26;138089.31;;;8.96;100.00
75640;BME280;64233;51.486;6.332;2023-12-29T04:19:51;137422.38;;;9.08;100.00
75640;BME280;64233;51.486;6.332;2023-12-29T04:22:16;137108.41;;;9.00;100.00
75640;BME280;64233;51.486;6.332;2023-12-29T04:24:42;137059.81;;;9.00;100.00
75640;BME280;64233;51.486;6.332;2023-12-29T04:27:07;136718.50;;;9.02;100.00
75640;BME280;64233;51.486;6.332;2023-12-29T04:29:32;136738.16;;;8.89;100.00
75640;BME280;64233;51.486;6.332;2023-12-29T04:31:57;136636.19;;;8.99;100.00
75640;BME280;64233;51.486;6.332;2023-12-29T04:34:23;136547.69;;;8.92;100.00
75640;BME280;64233;51.486;6.332;2023-12-29T04:36:48;136853.13;;;8.88;100.00
75640;BME280;64233;51.486;6.332;2023-12-29T04:39:13;136981.53;;;8.94;100.00
75640;BME280;64233;51.486;6.332;2023-12-29T04:41:39;136671.41;;;8.93;100.00
75640;BME280;64233;51.486;6.332;2023-12-29T04:44:04;136138.00;;;8.96;100.00
75640;BME280;64233;51.486;6.332;2023-12-29T04:46:29;136842.88;;;8.96;100.00
75640;BME280;64233;51.486;6.332;2023-12-29T04:48:54;136517.81;;;8.89;100.00
75640;BME280;64233;51.486;6.332;2023-12-29T04:51:20;136303.34;;;8.98;100.00
75640;BME280;64233;51.486;6.332;2023-12-29T04:53:45;135263.13;;;8.96;100.00
75640;BME280;64233;51.486;6.332;2023-12-29T04:56:11;135657.44;;;8.99;100.00
75640;BME280;64233;51.486;6.332;2023-12-29T04:58:38;135609.22;;;8.95;100.00
75640;BME280;64233;51.486;6.332;2023-12-29T05:01:03;135189.03;;;9.07;100.00
75640;BME280;64233;51.486;6.332;2023-12-29T05:03:29;134971.72;;;9.01;100.00
75640;BME280;64233;51.486;6.332;2023-12-29T05:05:54;134309.41;;;9.08;100.00
75640;BME280;64233;51.486;6.332;2023-12-29T05:08:19;133953.47;;;9.02;100.00
75640;BME280;64233;51.486;6.332;2023-12-29T05:10:45;133381.31;;;9.05;100.00
75640;BME280;64233;51.486;6.332;2023-12-29T05:13:10;133333.84;;;9.08;100.00
75640;BME280;64233;51.486;6.332;2023-12-29T05:15:35;132969.94;;;8.96;100.00
75640;BME280;64233;51.486;6.332;2023-12-29T05:18:01;132994.81;;;9.03;100.00
75640;BME280;64233;51.486;6.332;2023-12-29T05:20:26;132509.06;;;9.03;100.00
75640;BME280;64233;51.486;6.332;2023-12-29T05:22:51;132175.63;;;8.93;100.00
75640;BME280;64233;51.486;6.332;2023-12-29T05:25:17;131614.38;;;9.01;100.00
75640;BME280;64233;51.486;6.332;2023-12-29T05:27:42;131832.41;;;8.97;100.00
75640;BME280;64233;51.486;6.332;2023-12-29T05:30:07;131862.69;;;8.93;100.00
75640;BME280;64233;51.486;6.332;2023-12-29T05:32:33;131888.56;;;8.93;100.00
75640;BME280;64233;51.486;6.332;2023-12-29T05:34:58;131524.38;;;8.95;100.00
75640;BME280;64233;51.486;6.332;2023-12-29T05:37:24;131240.06;;;8.98;100.00
75640;BME280;64233;51.486;6.332;2023-12-29T05:39:49;131018.72;;;9.03;100.00
75640;BME280;64233;51.486;6.332;2023-12-29T05:42:14;130546.97;;;8.95;100.00
75640;BME280;64233;51.486;6.332;2023-12-29T05:44:40;130625.25;;;8.92;100.00
75640;BME280;64233;51.486;6.332;2023-12-29T05:47:05;130796.97;;;8.84;100.00
75640;BME280;64233;51.486;6.332;2023-12-29T05:49:30;130808.84;;;8.85;100.00
75640;BME280;64233;51.486;6.332;2023-12-29T05:51:57;131098.34;;;8.90;100.00
75640;BME280;64233;51.486;6.332;2023-12-29T05:54:22;130615.72;;;9.05;100.00
75640;BME280;64233;51.486;6.332;2023-12-29T05:56:48;130163.09;;;9.06;100.00
75640;BME280;64233;51.486;6.332;2023-12-29T05:59:13;130135.44;;;8.95;100.00
75640;BME280;64233;51.486;6.332;2023-12-29T06:01:38;130134.47;;;8.92;100.00
75640;BME280;64233;51.486;6.332;2023-12-29T06:04:04;130230.28;;;8.97;100.00
75640;BME280;64233;51.486;6.332;2023-12-29T06:06:29;130526.72;;;8.88;100.00
75640;BME280;64233;51.486;6.332;2023-12-29T06:08:54;130684.44;;;8.98;100.00
75640;BME280;64233;51.486;6.332;2023-12-29T06:11:20;130457.81;;;9.00;100.00
75640;BME280;64233;51.486;6.332;2023-12-29T06:13:46;130408.75;;;8.99;100.00
75640;BME280;64233;51.486;6.332;2023-12-29T06:16:20;130622.97;;;8.96;100.00
75640;BME280;64233;51.486;6.332;2023-12-29T06:18:46;130155.66;;;9.03;100.00
75640;BME280;64233;51.486;6.332;2023-12-29T06:21:12;130530.94;;;8.90;100.00
75640;BME280;64233;51.486;6.332;2023-12-29T06:23:37;130508.53;;;8.99;100.00
75640;BME280;64233;51.486;6.332;2023-12-29T06:26:03;130422.16;;;9.01;100.00
75640;BME280;64233;51.486;6.332;2023-12-29T06:28:28;130504.31;;;8.96;100.00
75640;BME280;64233;51.486;6.332;2023-12-29T06:30:53;130426.03;;;8.99;100.00
75640;BME280;64233;51.486;6.332;2023-12-29T06:33:19;129961.47;;;9.03;100.00
75640;BME280;64233;51.486;6.332;2023-12-29T06:35:47;130557.84;;;8.92;100.00
75640;BME280;64233;51.486;6.332;2023-12-29T06:38:12;131164.19;;;8.88;100.00
75640;BME280;64233;51.486;6.332;2023-12-29T06:40:37;131037.59;;;9.03;100.00
75640;BME280;64233;51.486;6.332;2023-12-29T06:43:03;131278.53;;;8.89;100.00
75640;BME280;64233;51.486;6.332;2023-12-29T06:45:29;132201.53;;;8.90;100.00
75640;BME280;64233;51.486;6.332;2023-12-29T06:47:54;132887.78;;;8.78;100.00
75640;BME280;64233;51.486;6.332;2023-12-29T06:50:19;133573.19;;;8.88;100.00
75640;BME280;64233;51.486;6.332;2023-12-29T06:52:44;134210.00;;;8.86;100.00
75640;BME280;64233;51.486;6.332;2023-12-29T06:55:10;135031.50;;;8.70;100.00
75640;BME280;64233;51.486;6.332;2023-12-29T06:57:35;136338.81;;;8.76;100.00
75640;BME280;64233;51.486;6.332;2023-12-29T07:00:02;137589.25;;;8.67;100.00
75640;BME280;64233;51.486;6.332;2023-12-29T07:02:27;139340.16;;;8.65;100.00
75640;BME280;64233;51.486;6.332;2023-12-29T07:04:53;139442.25;;;8.59;100.00
75640;BME280;64233;51.486;6.332;2023-12-29T07:07:18;140021.69;;;8.66;100.00
75640;BME280;64233;51.486;6.332;2023-12-29T07:09:43;141172.91;;;8.55;100.00
75640;BME280;64233;51.486;6.332;2023-12-29T07:12:08;143137.63;;;8.52;100.00
75640;BME280;64233;51.486;6.332;2023-12-29T07:14:34;144274.03;;;8.45;100.00
75640;BME280;64233;51.486;6.332;2023-12-29T07:17:01;145273.50;;;8.48;100.00
75640;BME280;64233;51.486;6.332;2023-12-29T07:19:26;145965.22;;;8.50;100.00
75640;BME280;64233;51.486;6.332;2023-12-29T07:21:54;146390.16;;;8.58;100.00
75640;BME280;64233;51.486;6.332;2023-12-29T07:24:19;147656.22;;;8.55;100.00
75640;BME280;64233;51.486;6.332;2023-12-29T07:26:45;147182.34;;;8.70;100.00
75640;BME280;64233;51.486;6.332;2023-12-29T07:29:10;146293.56;;;8.65;100.00
75640;BME280;64233;51.486;6.332;2023-12-29T07:31:38;146929.22;;;8.56;100.00
75640;BME280;64233;51.486;6.332;2023-12-29T07:34:04;146455.38;;;8.62;100.00
75640;BME280;64233;51.486;6.332;2023-12-29T07:36:30;147357.66;;;8.63;100.00
75640;BME280;64233;51.486;6.332;2023-12-29T07:38:55;147978.38;;;8.64;100.00
75640;BME280;64233;51.486;6.332;2023-12-29T07:41:20;147524.84;;;8.65;100.00
75640;BME280;64233;51.486;6.332;2023-12-29T07:43:46;147065.38;;;8.67;100.00
75640;BME280;64233;51.486;6.332;2023-12-29T07:46:11;146940.88;;;8.67;100.00
75640;BME280;64233;51.486;6.332;2023-12-29T07:48:39;148036.66;;;8.59;100.00
75640;BME280;64233;51.486;6.332;2023-12-29T07:51:05;149705.78;;;8.58;100.00
75640;BME280;64233;51.486;6.332;2023-12-29T07:53:31;149093.13;;;8.72;100.00
75640;BME280;64233;51.486;6.332;2023-12-29T07:55:56;148087.75;;;8.75;100.00
75640;BME280;64233;51.486;6.332;2023-12-29T07:58:21;148026.63;;;8.71;100.00
75640;BME280;64233;51.486;6.332;2023-12-29T08:00:47;146968.25;;;8.71;100.00
75640;BME280;64233;51.486;6.332;2023-12-29T08:03:12;147382.38;;;8.75;100.00
75640;BME280;64233;51.486;6.332;2023-12-29T08:05:37;147013.66;;;8.77;100.00
75640;BME280;64233;51.486;6.332;2023-12-29T08:08:03;147717.09;;;8.69;100.00
75640;BME280;64233;51.486;6.332;2023-12-29T08:10:29;148073.06;;;8.59;100.00
75640;BME280;64233;51.486;6.332;2023-12-29T08:12:55;150099.94;;;8.52;100.00
75640;BME280;64233;51.486;6.332;2023-12-29T08:15:20;151294.44;;;8.51;100.00
75640;BME280;64233;51.486;6.332;2023-12-29T08:17:45;153355.47;;;8.54;100.00
75640;BME280;64233;51.486;6.332;2023-12-29T08:20:11;153572.66;;;8.67;100.00
75640;BME280;64233;51.486;6.332;2023-12-29T08:22:36;153975.16;;;8.59;100.00
75640;BME280;64233;51.486;6.332;2023-12-29T08:25:03;155080.13;;;8.58;100.00
75640;BME280;64233;51.486;6.332;2023-12-29T08:27:28;154965.31;;;8.55;100.00
75640;BME280;64233;51.486;6.332;2023-12-29T08:29:54;155724.59;;;8.63;100.00
75640;BME280;64233;51.486;6.332;2023-12-29T08:32:19;155116.53;;;8.67;100.00
75640;BME280;64233;51.486;6.332;2023-12-29T08:34:44;155064.44;;;8.63;100.00
75640;BME280;64233;51.486;6.332;2023-12-29T08:37:10;154282.84;;;8.74;100.00
75640;BME280;64233;51.486;6.332;2023-12-29T08:39:35;153448.22;;;8.72;100.00
75640;BME280;64233;51.486;6.332;2023-12-29T08:42:00;152165.78;;;8.74;100.00
75640;BME280;64233;51.486;6.332;2023-12-29T08:44:25;152241.47;;;8.75;100.00
75640;BME280;64233;51.486;6.332;2023-12-29T08:46:51;152396.22;;;8.68;100.00
75640;BME280;64233;51.486;6.332;2023-12-29T08:49:16;153863.06;;;8.65;100.00
75640;BME280;64233;51.486;6.332;2023-12-29T08:51:41;154104.88;;;8.69;100.00
75640;BME280;64233;51.486;6.332;2023-12-29T08:54:06;154558.50;;;8.64;100.00
75640;BME280;64233;51.486;6.332;2023-12-29T08:56:32;155372.09;;;8.63;100.00
75640;BME280;64233;51.486;6.332;2023-12-29T08:58:57;155469.56;;;8.64;100.00
75640;BME280;64233;51.486;6.332;2023-12-29T09:01:22;156084.03;;;8.63;100.00
75640;BME280;64233;51.486;6.332;2023-12-29T09:03:48;155750.31;;;8.64;100.00
75640;BME280;64233;51.486;6.332;2023-12-29T09:06:13;155628.75;;;8.69;100.00
75640;BME280;64233;51.486;6.332;2023-12-29T09:08:39;155347.66;;;8.72;100.00
75640;BME280;64233;51.486;6.332;2023-12-29T09:11:04;155392.31;;;8.72;100.00
75640;BME280;64233;51.486;6.332;2023-12-29T09:13:30;154617.06;;;8.70;100.00
75640;BME280;64233;51.486;6.332;2023-12-29T09:15:55;154134.47;;;8.70;100.00
75640;BME280;64233;51.486;6.332;2023-12-29T09:18:21;154140.78;;;8.73;100.00
75640;BME280;64233;51.486;6.332;2023-12-29T09:20:46;153565.16;;;8.70;100.00
75640;BME280;64233;51.486;6.332;2023-12-29T09:23:13;152231.28;;;8.72;100.00
75640;BME280;64233;51.486;6.332;2023-12-29T09:25:38;151892.06;;;8.74;100.00
75640;BME280;64233;51.486;6.332;2023-12-29T09:28:03;151892.06;;;8.74;100.00
75640;BME280;64233;51.486;6.332;2023-12-29T09:30:29;153826.59;;;8.78;100.00
75640;BME280;64233;51.486;6.332;2023-12-29T09:32:54;152427.41;;;8.81;100.00
75640;BME280;64233;51.486;6.332;2023-12-29T09:35:19;151918.19;;;8.85;100.00
75640;BME280;64233;51.486;6.332;2023-12-29T09:37:47;150682.47;;;8.85;100.00
75640;BME280;64233;51.486;6.332;2023-12-29T09:40:14;149661.59;;;8.89;100.00
75640;BME280;64233;51.486;6.332;2023-12-29T09:42:42;149309.69;;;8.88;100.00
75640;BME280;64233;51.486;6.332;2023-12-29T09:45:11;149460.06;;;8.77;100.00
75640;BME280;64233;51.486;6.332;2023-12-29T09:47:41;149612.19;;;8.81;100.00
75640;BME280;64233;51.486;6.332;2023-12-29T09:50:09;149449.69;;;8.81;100.00
75640;BME280;64233;51.486;6.332;2023-12-29T09:52:36;148824.06;;;8.81;100.00
75640;BME280;64233;51.486;6.332;2023-12-29T09:55:03;149154.16;;;8.82;100.00
75640;BME280;64233;51.486;6.332;2023-12-29T09:57:28;149728.75;;;8.75;100.00
75640;BME280;64233;51.486;6.332;2023-12-29T09:59:54;151528.22;;;8.72;100.00
75640;BME280;64233;51.486;6.332;2023-12-29T10:02:20;153234.94;;;8.75;100.00
75640;BME280;64233;51.486;6.332;2023-12-29T10:04:49;154383.56;;;8.72;100.00
75640;BME280;64233;51.486;6.332;2023-12-29T10:07:25;156175.31;;;8.69;100.00
75640;BME280;64233;51.486;6.332;2023-12-29T10:24:14;156669.41;;;8.75;100.00
75640;BME280;64233;51.486;6.332;2023-12-29T10:26:42;156665.56;;;8.74;100.00
75640;BME280;64233;51.486;6.332;2023-12-29T10:29:09;156668.16;;;8.75;100.00
75640;BME280;64233;51.486;6.332;2023-12-29T10:31:35;156679.69;;;8.79;100.00
75640;BME280;64233;51.486;6.332;2023-12-29T10:34:19;156674.56;;;8.77;100.00
75640;BME280;64233;51.486;6.332;2023-12-29T10:36:49;156675.84;;;8.78;100.00
75640;BME280;64233;51.486;6.332;2023-12-29T10:39:14;156677.09;;;8.78;100.00
75640;BME280;64233;51.486;6.332;2023-12-29T10:41:41;156711.78;;;8.92;100.00
75640;BME280;64233;51.486;6.332;2023-12-29T10:44:07;155729.22;;;8.94;100.00
75640;BME280;64233;51.486;6.332;2023-12-29T10:46:32;154125.78;;;8.95;100.00
75640;BME280;64233;51.486;6.332;2023-12-29T10:49:12;153594.06;;;8.96;100.00
75640;BME280;64233;51.486;6.332;2023-12-29T10:51:38;152264.09;;;9.03;100.00
75640;BME280;64233;51.486;6.332;2023-12-29T10:54:03;151024.03;;;9.08;100.00
75640;BME280;64233;51.486;6.332;2023-12-29T10:56:32;150234.34;;;9.06;100.00
75640;BME280;64233;51.486;6.332;2023-12-29T10:59:05;148897.88;;;9.08;100.00
75640;BME280;64233;51.486;6.332;2023-12-29T11:01:35;147865.81;;;9.13;100.00
75640;BME280;64233;51.486;6.332;2023-12-29T11:04:05;147474.53;;;9.12;100.00
75640;BME280;64233;51.486;6.332;2023-12-29T11:06:42;146895.22;;;9.16;100.00
75640;BME280;64233;51.486;6.332;2023-12-29T11:09:10;144840.72;;;9.22;100.00
75640;BME280;64233;51.486;6.332;2023-12-29T11:11:36;144354.44;;;9.27;100.00
75640;BME280;64233;51.486;6.332;2023-12-29T11:14:02;142423.91;;;9.33;100.00
75640;BME280;64233;51.486;6.332;2023-12-29T11:16:29;141920.97;;;9.36;100.00
75640;BME280;64233;51.486;6.332;2023-12-29T11:19:01;140605.97;;;9.39;100.00
75640;BME280;64233;51.486;6.332;2023-12-29T11:21:27;139335.31;;;9.35;100.00
75640;BME280;64233;51.486;6.332;2023-12-29T11:23:55;138189.28;;;9.40;100.00
75640;BME280;64233;51.486;6.332;2023-12-29T11:26:21;137279.41;;;9.40;100.00
75640;BME280;64233;51.486;6.332;2023-12-29T11:28:46;136793.16;;;9.37;100.00
75640;BME280;64233;51.486;6.332;2023-12-29T11:31:15;136303.53;;;9.38;100.00
75640;BME280;64233;51.486;6.332;2023-12-29T11:33:44;136107.34;;;9.38;100.00
75640;BME280;64233;51.486;6.332;2023-12-29T11:43:58;135823.88;;;9.32;100.00
75640;BME280;64233;51.486;6.332;2023-12-29T11:46:42;135747.75;;;9.33;100.00
75640;BME280;64233;51.486;6.332;2023-12-29T11:49:09;135557.63;;;9.35;100.00
75640;BME280;64233;51.486;6.332;2023-12-29T11:51:36;136175.44;;;9.37;100.00
75640;BME280;64233;51.486;6.332;2023-12-29T11:54:04;135934.19;;;9.33;100.00
75640;BME280;64233;51.486;6.332;2023-12-29T11:56:30;136103.56;;;9.38;100.00
75640;BME280;64233;51.486;6.332;2023-12-29T11:59:08;136947.84;;;9.38;100.00
75640;BME280;64233;51.486;6.332;2023-12-29T12:01:36;138144.25;;;9.38;100.00
75640;BME280;64233;51.486;6.332;2023-12-29T12:04:02;137510.06;;;9.38;100.00
75640;BME280;64233;51.486;6.332;2023-12-29T12:06:37;140924.25;;;9.28;100.00
75640;BME280;64233;51.486;6.332;2023-12-29T12:09:22;142276.94;;;9.21;100.00
75640;BME280;64233;51.486;6.332;2023-12-29T12:11:50;144847.72;;;9.13;100.00
75640;BME280;64233;51.486;6.332;2023-12-29T12:14:48;148847.34;;;9.10;100.00
75640;BME280;64233;51.486;6.332;2023-12-29T12:17:32;150015.13;;;9.21;100.00
75640;BME280;64233;51.486;6.332;2023-12-29T12:20:07;149056.34;;;9.24;100.00
75640;BME280;64233;51.486;6.332;2023-12-29T12:22:37;147556.13;;;9.25;100.00
75640;BME280;64233;51.486;6.332;2023-12-29T12:25:03;147476.97;;;9.13;100.00
75640;BME280;64233;51.486;6.332;2023-12-29T12:27:30;148819.47;;;9.03;100.00
75640;BME280;64233;51.486;6.332;2023-12-29T12:29:56;150692.34;;;8.95;100.00
75640;BME280;64233;51.486;6.332;2023-12-29T12:32:27;154872.41;;;8.91;100.00
75640;BME280;64233;51.486;6.332;2023-12-29T12:34:52;156691.22;;;8.84;100.00
75640;BME280;64233;51.486;6.332;2023-12-29T12:37:22;156704.09;;;8.89;100.00
75640;BME280;64233;51.486;6.332;2023-12-29T12:39:47;156709.19;;;8.91;100.00
75640;BME280;64233;51.486;6.332;2023-12-29T12:42:15;156709.19;;;8.91;100.00
75640;BME280;64233;51.486;6.332;2023-12-29T12:44:47;156719.47;;;8.95;100.00
75640;BME280;64233;51.486;6.332;2023-12-29T12:47:18;156729.75;;;9.00;100.00
75640;BME280;64233;51.486;6.332;2023-12-29T12:49:44;156741.28;;;9.04;100.00
75640;BME280;64233;51.486;6.332;2023-12-29T12:52:09;156751.56;;;9.08;100.00
75640;BME280;64233;51.486;6.332;2023-12-29T12:54:35;156750.28;;;9.08;100.00
75640;BME280;64233;51.486;6.332;2023-12-29T12:57:01;156738.75;;;9.03;100.00
75640;BME280;64233;51.486;6.332;2023-12-29T12:59:27;156750.28;;;9.08;100.00
75640;BME280;64233;51.486;6.332;2023-12-29T13:01:53;156754.13;;;9.09;100.00
75640;BME280;64233;51.486;6.332;2023-12-29T13:04:18;156760.56;;;9.12;100.00
75640;BME280;64233;51.486;6.332;2023-12-29T13:06:44;156756.72;;;9.10;100.00
75640;BME280;64233;51.486;6.332;2023-12-29T13:09:10;156770.84;;;9.16;100.00
75640;BME280;64233;51.486;6.332;2023-12-29T13:11:42;156775.97;;;9.18;100.00